Time;durP1;ratioP1;P1;durP2;ratioP2;P2;SDS_P1;SDS_P2;PMS_P1;PMS_P2;Temp;Humidity;BMP_temperature;BMP_pressure;BME280_temperature;BME280_humidity;BME280_pressure;Samples;Min_cycle;Max_cycle;Signal;HPM_P1;HPM_P2
2024/03/13 00:00:10;;;;;;;8.70;6.78;;;12.50;79.50;;;;;;4969559;28;20027;-37
2024/03/13 00:02:41;;;;;;;9.50;7.35;;;12.60;79.60;;;;;;4974723;28;20018;-40
2024/03/13 00:05:09;;;;;;;8.70;7.00;;;12.50;79.50;;;;;;4977998;28;20582;-41
2024/03/13 00:07:38;;;;;;;8.85;6.88;;;12.50;79.60;;;;;;4961035;28;20362;-38
2024/03/13 00:10:06;;;;;;;8.23;6.90;;;12.50;79.50;;;;;;4980139;28;20094;-41
2024/03/13 00:12:34;;;;;;;9.40;6.95;;;12.50;79.60;;;;;;4980018;28;20024;-35
2024/03/13 00:15:03;;;;;;;9.35;7.10;;;12.50;79.60;;;;;;4964939;28;20036;-40
2024/03/13 00:17:30;;;;;;;8.98;7.32;;;12.50;79.60;;;;;;4970538;28;20047;-40
2024/03/13 00:19:57;;;;;;;8.40;7.20;;;12.50;79.60;;;;;;4977076;28;20020;-41
2024/03/13 00:22:24;;;;;;;9.95;7.13;;;12.50;79.60;;;;;;4975873;28;20094;-40
2024/03/13 00:24:50;;;;;;;8.32;6.80;;;12.50;79.60;;;;;;4980879;28;20094;-40
2024/03/13 00:27:17;;;;;;;9.93;7.63;;;12.50;79.60;;;;;;4977606;28;20018;-41
2024/03/13 00:29:44;;;;;;;8.88;7.03;;;12.50;79.60;;;;;;4956034;28;20043;-39
2024/03/13 00:32:12;;;;;;;9.15;7.45;;;12.50;79.60;;;;;;4970198;28;20032;-40
2024/03/13 00:34:39;;;;;;;8.80;7.15;;;12.50;79.60;;;;;;4971177;28;20038;-39
2024/03/13 00:37:05;;;;;;;8.52;6.85;;;12.50;80.20;;;;;;4979479;28;20031;-39
2024/03/13 00:39:31;;;;;;;8.90;7.20;;;12.50;79.50;;;;;;4969831;28;20059;-41
2024/03/13 00:41:57;;;;;;;8.68;6.55;;;12.50;79.50;;;;;;4974274;28;20122;-40
2024/03/13 00:44:23;;;;;;;8.63;6.82;;;12.50;79.60;;;;;;4971732;28;20063;-38
2024/03/13 00:46:49;;;;;;;9.30;7.20;;;12.50;79.60;;;;;;4953267;28;20125;-41
2024/03/13 00:49:15;;;;;;;8.65;7.10;;;12.50;79.60;;;;;;4980309;28;20062;-41
2024/03/13 00:51:44;;;;;;;8.43;6.63;;;12.50;79.60;;;;;;4978893;28;20031;-38
2024/03/13 00:54:11;;;;;;;8.93;6.85;;;12.50;79.60;;;;;;4982110;28;20083;-41
2024/03/13 00:56:36;;;;;;;8.88;7.03;;;12.50;79.60;;;;;;4981611;28;20049;-41
2024/03/13 00:59:05;;;;;;;9.10;7.28;;;12.50;79.60;;;;;;4975142;28;20057;-39
2024/03/13 01:01:31;;;;;;;8.23;6.70;;;12.50;79.60;;;;;;4982769;28;20058;-41
2024/03/13 01:03:59;;;;;;;8.95;7.30;;;12.50;79.60;;;;;;4978682;28;20019;-40
2024/03/13 01:06:28;;;;;;;8.48;6.63;;;12.50;79.60;;;;;;4981757;28;20054;-38
2024/03/13 01:08:56;;;;;;;8.40;6.80;;;12.50;79.60;;;;;;4982286;28;20045;-40
2024/03/13 01:11:22;;;;;;;9.52;7.00;;;12.50;79.60;;;;;;4973106;28;20495;-39
2024/03/13 01:13:50;;;;;;;8.93;6.93;;;12.50;79.60;;;;;;4976145;28;20451;-41
2024/03/13 01:16:16;;;;;;;8.10;6.82;;;12.50;79.60;;;;;;4981194;28;20023;-40
2024/03/13 01:18:41;;;;;;;8.75;7.03;;;12.50;79.60;;;;;;4979180;28;20041;-38
2024/03/13 01:21:08;;;;;;;8.60;6.65;;;12.50;79.60;;;;;;4959713;28;20592;-39
2024/03/13 01:23:35;;;;;;;8.13;6.68;;;12.50;79.60;;;;;;4979591;28;20027;-41
2024/03/13 01:26:04;;;;;;;8.52;7.03;;;12.50;79.60;;;;;;4975665;28;20498;-41
2024/03/13 01:28:31;;;;;;;7.95;6.25;;;12.50;79.60;;;;;;4967419;28;20043;-41
2024/03/13 01:30:56;;;;;;;8.25;6.65;;;12.50;79.60;;;;;;4972859;28;20043;-40
2024/03/13 01:33:22;;;;;;;8.02;6.65;;;12.50;79.60;;;;;;4979268;28;20042;-40
2024/03/13 01:35:48;;;;;;;7.47;6.10;;;12.50;79.60;;;;;;4979277;28;20035;-39
2024/03/13 01:38:14;;;;;;;8.75;6.65;;;12.50;79.60;;;;;;4970355;28;20124;-41
2024/03/13 01:57:13;;;;;;;7.85;6.18;;;12.50;79.60;;;;;;4980084;28;20108;-41
2024/03/13 01:59:49;;;;;;;7.40;5.70;;;12.40;79.60;;;;;;4979757;28;20023;-40
2024/03/13 02:02:24;;;;;;;8.52;6.38;;;12.50;79.60;;;;;;4961758;28;20021;-41
2024/03/13 02:04:54;;;;;;;8.27;6.43;;;12.50;79.70;;;;;;4974959;28;20047;-40
2024/03/13 02:07:22;;;;;;;8.13;6.07;;;12.50;79.70;;;;;;4976192;28;20042;-40
2024/03/13 02:09:50;;;;;;;7.82;5.97;;;12.50;79.70;;;;;;4949939;28;20420;-41
2024/03/13 02:12:16;;;;;;;6.72;5.45;;;12.50;79.70;;;;;;4976964;28;20035;-39
2024/03/13 02:14:43;;;;;;;7.68;6.15;;;12.50;79.70;;;;;;4987545;28;20023;-40
2024/03/13 02:17:10;;;;;;;7.65;6.20;;;12.50;79.70;;;;;;4976292;28;20045;-40
2024/03/13 02:19:37;;;;;;;6.85;5.82;;;12.40;79.60;;;;;;4976324;28;20046;-38
2024/03/13 02:22:05;;;;;;;7.03;5.68;;;12.50;79.70;;;;;;4979699;28;20038;-39
2024/03/13 02:24:34;;;;;;;6.75;5.32;;;12.50;79.60;;;;;;4944306;28;20395;-40
2024/03/13 02:27:07;;;;;;;7.15;5.63;;;12.50;79.60;;;;;;4970295;28;20037;-40
2024/03/13 02:29:33;;;;;;;7.03;5.97;;;12.50;79.60;;;;;;4968685;28;20034;-41
2024/03/13 02:32:00;;;;;;;7.45;5.72;;;12.50;79.70;;;;;;4969813;28;20038;-38
2024/03/13 02:34:26;;;;;;;7.55;6.13;;;12.50;79.70;;;;;;4960723;28;20031;-40
2024/03/13 02:36:54;;;;;;;6.72;5.13;;;12.50;79.60;;;;;;4965394;28;20042;-40
2024/03/13 02:39:20;;;;;;;7.25;5.75;;;12.50;79.60;;;;;;4961816;28;20034;-39
2024/03/13 02:41:46;;;;;;;6.78;5.63;;;12.50;79.60;;;;;;4976333;28;20086;-41
2024/03/13 02:44:12;;;;;;;6.85;5.32;;;12.50;79.60;;;;;;4970633;28;20031;-41
2024/03/13 02:46:38;;;;;;;7.32;5.57;;;12.50;79.60;;;;;;4973951;28;20057;-40
2024/03/13 02:49:04;;;;;;;6.70;5.28;;;12.50;79.70;;;;;;4971098;28;20558;-40
2024/03/13 02:51:30;;;;;;;7.38;5.75;;;12.50;79.60;;;;;;4978951;28;20027;-41
2024/03/13 02:53:56;;;;;;;7.35;5.65;;;12.50;79.60;;;;;;4975299;28;20027;-40
2024/03/13 02:56:22;;;;;;;6.72;5.38;;;12.50;79.70;;;;;;4969957;28;20030;-39
2024/03/13 02:58:48;;;;;;;7.35;5.45;;;12.50;79.60;;;;;;4977106;28;20038;-40
2024/03/13 03:01:16;;;;;;;6.55;5.40;;;12.50;79.60;;;;;;4972440;28;20026;-40
2024/03/13 03:03:41;;;;;;;7.07;5.45;;;12.50;79.60;;;;;;4974578;28;20023;-40
2024/03/13 03:06:07;;;;;;;7.03;5.35;;;12.50;79.60;;;;;;4971592;28;20030;-40
2024/03/13 03:08:35;;;;;;;6.80;5.20;;;12.50;79.70;;;;;;4969717;28;20049;-41
2024/03/13 03:11:04;;;;;;;6.95;5.38;;;12.50;79.70;;;;;;4974754;28;20072;-38
2024/03/13 03:13:30;;;;;;;6.43;5.20;;;12.50;79.70;;;;;;4955991;28;20039;-39
2024/03/13 03:15:56;;;;;;;6.97;5.40;;;12.50;79.60;;;;;;4976673;28;20033;-41
2024/03/13 03:18:22;;;;;;;7.40;5.28;;;12.50;79.60;;;;;;4972776;28;20023;-40
2024/03/13 03:20:48;;;;;;;6.53;5.55;;;12.50;79.60;;;;;;4976920;28;20405;-42
2024/03/13 03:23:15;;;;;;;7.28;5.72;;;12.50;79.70;;;;;;4973526;28;20415;-40
2024/03/13 03:25:40;;;;;;;7.05;5.75;;;12.50;79.70;;;;;;4980922;28;21740;-41
2024/03/13 03:28:07;;;;;;;7.15;5.38;;;12.50;79.70;;;;;;4976721;28;20046;-40
2024/03/13 03:30:33;;;;;;;7.53;5.03;;;12.50;79.70;;;;;;4971453;28;20509;-41
2024/03/13 03:33:00;;;;;;;6.55;5.47;;;12.50;79.70;;;;;;4974456;28;20509;-40
2024/03/13 03:35:27;;;;;;;6.43;5.18;;;12.50;79.70;;;;;;4984752;28;20035;-41
2024/03/13 03:37:53;;;;;;;7.75;5.47;;;12.50;79.70;;;;;;4974142;28;20126;-41
2024/03/13 03:40:19;;;;;;;7.00;5.43;;;12.50;79.70;;;;;;4970326;28;20049;-41
2024/03/13 03:42:46;;;;;;;7.15;5.13;;;12.50;79.70;;;;;;4969845;28;20034;-37
2024/03/13 03:45:13;;;;;;;7.60;5.82;;;12.50;79.70;;;;;;4978675;28;20050;-39
2024/03/13 03:47:39;;;;;;;7.63;5.95;;;12.50;79.70;;;;;;4954984;28;20024;-40
2024/03/13 03:50:07;;;;;;;7.82;5.60;;;12.50;79.80;;;;;;4972602;28;20348;-41
2024/03/13 03:52:34;;;;;;;7.28;5.32;;;12.50;79.70;;;;;;4977343;28;20248;-41
2024/03/13 03:55:02;;;;;;;7.07;5.32;;;12.60;79.80;;;;;;4952900;28;20027;-40
2024/03/13 03:57:28;;;;;;;7.32;5.63;;;12.50;79.70;;;;;;4978666;28;20424;-40
2024/03/13 03:59:53;;;;;;;6.60;5.20;;;12.50;79.70;;;;;;4974255;28;20022;-40
2024/03/13 04:02:19;;;;;;;6.85;5.65;;;12.50;79.70;;;;;;4978489;28;20114;-41
2024/03/13 04:04:45;;;;;;;7.47;5.75;;;12.50;79.70;;;;;;4983521;28;20035;-41
2024/03/13 04:07:11;;;;;;;8.07;5.72;;;12.50;79.70;;;;;;4977376;28;20023;-41
2024/03/13 04:09:37;;;;;;;7.50;5.80;;;12.60;79.80;;;;;;4976618;28;20035;-41
2024/03/13 04:12:03;;;;;;;8.43;5.68;;;12.50;79.70;;;;;;4977066;28;20557;-39
2024/03/13 04:14:29;;;;;;;7.57;5.50;;;12.50;79.70;;;;;;4983107;28;20030;-41
2024/03/13 04:16:54;;;;;;;7.70;5.85;;;12.60;79.80;;;;;;4968967;28;20042;-40
2024/03/13 04:19:21;;;;;;;8.27;5.55;;;12.50;79.70;;;;;;4978548;28;20054;-37
2024/03/13 04:21:47;;;;;;;7.70;5.95;;;12.60;79.80;;;;;;4966244;28;20046;-38
2024/03/13 04:24:13;;;;;;;7.47;6.07;;;12.60;79.80;;;;;;4972724;28;20031;-38
2024/03/13 04:26:40;;;;;;;7.68;5.82;;;12.60;79.80;;;;;;4972475;28;20019;-40
2024/03/13 04:29:06;;;;;;;7.60;5.82;;;12.50;79.70;;;;;;4971936;28;20496;-39
2024/03/13 04:31:33;;;;;;;7.53;5.93;;;12.60;79.80;;;;;;4974222;28;20034;-41
2024/03/13 04:33:59;;;;;;;7.13;5.68;;;12.50;79.70;;;;;;4970882;28;20042;-37
2024/03/13 04:36:25;;;;;;;8.07;6.03;;;12.60;79.80;;;;;;4973844;28;20533;-38
2024/03/13 04:38:51;;;;;;;7.30;5.70;;;12.60;79.70;;;;;;4972395;28;20027;-38
2024/03/13 04:41:20;;;;;;;9.25;5.97;;;12.60;79.70;;;;;;4971216;28;20099;-41
2024/03/13 04:43:46;;;;;;;7.60;5.85;;;12.60;79.80;;;;;;4972039;28;20062;-41
2024/03/13 04:46:18;;;;;;;7.15;5.63;;;12.60;79.70;;;;;;4973490;28;20047;-37
2024/03/13 04:48:47;;;;;;;7.80;6.05;;;12.60;79.80;;;;;;4972123;28;20039;-41
2024/03/13 04:51:14;;;;;;;7.93;6.13;;;12.70;79.80;;;;;;4974269;28;20027;-39
2024/03/13 04:53:40;;;;;;;7.43;5.57;;;12.60;79.70;;;;;;4979358;28;20029;-40
2024/03/13 04:56:06;;;;;;;9.00;6.63;;;12.60;79.70;;;;;;4969653;28;20027;-40
2024/03/13 04:58:34;;;;;;;8.30;5.95;;;12.60;79.70;;;;;;4977994;28;20323;-40
2024/03/13 05:00:59;;;;;;;8.20;6.38;;;12.70;79.80;;;;;;4966469;28;20062;-41
2024/03/13 05:03:25;;;;;;;7.63;6.18;;;12.70;79.70;;;;;;4974921;28;20188;-39
2024/03/13 05:05:51;;;;;;;7.95;6.22;;;12.60;79.70;;;;;;4978483;28;20046;-38
2024/03/13 05:08:17;;;;;;;7.57;5.95;;;12.70;79.80;;;;;;4967683;28;20070;-40
2024/03/13 05:10:43;;;;;;;8.65;6.97;;;12.70;79.80;;;;;;4978031;28;20538;-40
2024/03/13 05:13:09;;;;;;;9.68;7.15;;;12.70;79.80;;;;;;4976817;28;20018;-38
2024/03/13 05:15:35;;;;;;;7.30;5.88;;;12.70;79.70;;;;;;4963158;28;20026;-37
2024/03/13 05:18:02;;;;;;;8.95;5.88;;;12.70;79.70;;;;;;4964079;28;20023;-41
2024/03/13 05:20:28;;;;;;;9.65;6.80;;;12.70;79.70;;;;;;4956108;28;20031;-40
2024/03/13 05:22:54;;;;;;;7.70;5.75;;;12.70;79.80;;;;;;4967092;28;20106;-38
2024/03/13 05:25:22;;;;;;;8.00;6.00;;;12.70;79.70;;;;;;4968133;28;20031;-41
2024/03/13 05:27:49;;;;;;;8.20;6.15;;;12.70;79.70;;;;;;4968672;28;20023;-40
2024/03/13 05:30:17;;;;;;;7.80;6.13;;;12.70;79.70;;;;;;4979174;28;20132;-37
2024/03/13 05:32:44;;;;;;;8.82;6.28;;;12.70;79.70;;;;;;4977221;28;20078;-40
2024/03/13 05:35:10;;;;;;;7.68;5.80;;;12.70;79.70;;;;;;4975607;28;20057;-38
2024/03/13 05:37:38;;;;;;;7.68;6.30;;;12.70;79.70;;;;;;4978093;28;20490;-39
2024/03/13 05:40:17;;;;;;;9.13;6.47;;;12.70;79.70;;;;;;4975494;28;20022;-39
2024/03/13 05:42:43;;;;;;;7.65;6.13;;;12.80;79.80;;;;;;4973700;28;20065;-39
2024/03/13 05:45:10;;;;;;;7.18;5.53;;;12.80;79.80;;;;;;4975848;28;20082;-37
2024/03/13 05:47:36;;;;;;;7.57;5.90;;;12.70;79.70;;;;;;4952201;28;20088;-40
2024/03/13 05:50:03;;;;;;;7.70;5.97;;;12.80;79.80;;;;;;4974749;28;20065;-38
2024/03/13 05:52:29;;;;;;;7.30;5.63;;;12.80;79.80;;;;;;4976231;28;20031;-39
2024/03/13 05:54:55;;;;;;;7.70;6.00;;;12.80;79.90;;;;;;4972984;28;20026;-40
2024/03/13 05:57:23;;;;;;;7.55;5.47;;;12.80;79.80;;;;;;4976228;28;20461;-40
2024/03/13 05:59:50;;;;;;;9.40;5.90;;;12.80;79.90;;;;;;4975100;28;20463;-40
2024/03/13 06:02:16;;;;;;;7.22;5.60;;;12.80;79.80;;;;;;4973361;28;20037;-39
2024/03/13 06:04:42;;;;;;;7.60;5.80;;;12.80;79.80;;;;;;4953617;28;20044;-39
2024/03/13 06:07:08;;;;;;;7.68;5.53;;;12.80;79.80;;;;;;4981656;28;20550;-38
2024/03/13 06:09:36;;;;;;;7.22;4.88;;;12.80;79.80;;;;;;4950999;28;20039;-40
2024/03/13 06:12:02;;;;;;;7.35;4.85;;;12.80;79.80;;;;;;4972243;28;20019;-40
2024/03/13 06:14:29;;;;;;;8.00;5.22;;;12.80;79.90;;;;;;4977641;28;20037;-40
2024/03/13 06:16:54;;;;;;;7.15;5.20;;;12.80;79.80;;;;;;4970608;28;20049;-39
2024/03/13 06:19:20;;;;;;;7.60;5.68;;;12.80;79.80;;;;;;4972296;28;20091;-40
2024/03/13 06:21:46;;;;;;;7.32;5.57;;;12.90;79.90;;;;;;4972971;28;20054;-39
2024/03/13 06:24:12;;;;;;;6.82;5.05;;;12.80;79.80;;;;;;4978683;28;20034;-39
2024/03/13 06:26:45;;;;;;;7.47;5.35;;;12.90;79.90;;;;;;4974251;28;20031;-38
2024/03/13 06:31:55;;;;;;;6.05;4.35;;;12.90;79.90;;;;;;4974568;28;20037;-40
2024/03/13 06:34:23;;;;;;;5.85;4.85;;;12.90;79.90;;;;;;4974847;28;20031;-40
2024/03/13 06:36:49;;;;;;;6.97;5.03;;;12.90;79.90;;;;;;4974355;28;20018;-37
2024/03/13 06:39:16;;;;;;;7.03;5.18;;;12.90;79.90;;;;;;4950957;28;20035;-39
2024/03/13 06:41:41;;;;;;;7.00;5.03;;;12.90;79.90;;;;;;4978794;28;20026;-40
2024/03/13 06:44:07;;;;;;;6.85;5.07;;;12.90;80.00;;;;;;4981568;28;20061;-40
2024/03/13 06:46:34;;;;;;;6.30;4.80;;;12.90;80.00;;;;;;4979900;28;20054;-34
2024/03/13 06:49:00;;;;;;;6.82;5.07;;;12.90;79.90;;;;;;4975802;28;20039;-39
2024/03/13 06:51:25;;;;;;;6.85;4.85;;;13.00;80.00;;;;;;4976540;28;20067;-38
2024/03/13 06:53:51;;;;;;;6.93;5.10;;;12.90;79.90;;;;;;4980715;28;20030;-39
2024/03/13 06:56:17;;;;;;;6.20;4.75;;;13.00;80.00;;;;;;4973720;28;20035;-40
2024/03/13 06:58:43;;;;;;;5.95;4.53;;;13.00;80.00;;;;;;4974682;28;20023;-40
2024/03/13 07:01:12;;;;;;;6.25;4.70;;;13.00;80.00;;;;;;4979872;28;20022;-40
2024/03/13 07:03:41;;;;;;;6.05;4.43;;;13.00;80.00;;;;;;4978450;28;20027;-39
2024/03/13 07:06:07;;;;;;;6.50;4.40;;;13.00;80.00;;;;;;4975599;28;20031;-40
2024/03/13 07:08:35;;;;;;;6.90;4.57;;;13.00;80.00;;;;;;4977430;28;20098;-40
2024/03/13 07:11:07;;;;;;;7.47;4.97;;;13.00;80.00;;;;;;4975918;28;20095;-41
2024/03/13 07:13:33;;;;;;;7.57;5.32;;;13.00;80.00;;;;;;4969783;28;20085;-40
2024/03/13 07:16:00;;;;;;;6.57;4.72;;;13.00;79.90;;;;;;4967622;28;20018;-39
2024/03/13 07:18:27;;;;;;;5.88;4.47;;;13.10;80.00;;;;;;4977739;28;20034;-40
2024/03/13 07:20:53;;;;;;;6.20;4.60;;;13.00;79.90;;;;;;4969401;28;20016;-41
2024/03/13 07:23:19;;;;;;;6.63;4.82;;;13.00;79.90;;;;;;4974943;28;20575;-40
2024/03/13 07:25:45;;;;;;;5.97;4.60;;;13.00;79.90;;;;;;4982975;28;20054;-40
2024/03/13 07:28:13;;;;;;;6.25;4.75;;;13.10;80.00;;;;;;4981127;28;20027;-41
2024/03/13 07:30:39;;;;;;;6.68;4.65;;;13.10;80.00;;;;;;4979315;28;20468;-38
2024/03/13 07:33:08;;;;;;;6.00;4.45;;;13.10;80.00;;;;;;4971308;28;20038;-38
2024/03/13 07:35:34;;;;;;;6.57;4.65;;;13.10;80.00;;;;;;4974154;28;20031;-39
2024/03/13 07:38:00;;;;;;;6.07;4.53;;;13.10;80.00;;;;;;4976499;28;20074;-40
2024/03/13 07:40:27;;;;;;;6.45;4.95;;;13.10;80.00;;;;;;4979852;28;20034;-40
2024/03/13 07:42:53;;;;;;;6.45;4.75;;;13.10;80.00;;;;;;4979656;28;20031;-39
2024/03/13 07:45:19;;;;;;;6.68;5.10;;;13.10;80.00;;;;;;4982342;28;20055;-40
2024/03/13 07:47:45;;;;;;;7.18;5.00;;;13.10;80.00;;;;;;4975305;28;20018;-40
2024/03/13 07:50:11;;;;;;;6.40;4.82;;;13.10;79.90;;;;;;4974562;28;20063;-40
2024/03/13 07:52:37;;;;;;;6.50;4.97;;;13.20;80.00;;;;;;4975496;28;20022;-40
2024/03/13 07:55:04;;;;;;;6.60;4.88;;;13.20;80.00;;;;;;4984926;28;20069;-40
2024/03/13 07:57:30;;;;;;;6.63;5.18;;;13.20;80.00;;;;;;4980176;28;20054;-41
2024/03/13 07:59:56;;;;;;;6.13;4.57;;;13.20;80.00;;;;;;4975422;28;20093;-40
2024/03/13 08:02:23;;;;;;;7.05;4.90;;;13.20;80.00;;;;;;4980285;28;20035;-41
2024/03/13 08:04:48;;;;;;;6.70;4.97;;;13.20;80.00;;;;;;4972272;28;20036;-40
2024/03/13 08:07:14;;;;;;;6.55;4.93;;;13.20;80.00;;;;;;4988352;28;20026;-38
2024/03/13 08:09:40;;;;;;;7.25;4.90;;;13.20;79.90;;;;;;4979007;28;20039;-40
2024/03/13 08:12:06;;;;;;;6.50;5.03;;;13.20;79.90;;;;;;4979132;28;20431;-39
2024/03/13 08:14:34;;;;;;;7.00;5.22;;;13.20;79.90;;;;;;4963590;28;20053;-39
2024/03/13 08:17:00;;;;;;;6.95;5.25;;;13.30;80.00;;;;;;4974102;28;20038;-45
2024/03/13 08:19:26;;;;;;;7.10;5.13;;;13.30;80.00;;;;;;4978254;28;20023;-39
2024/03/13 08:21:52;;;;;;;6.57;5.18;;;13.30;80.00;;;;;;4969684;28;20023;-40
2024/03/13 08:24:18;;;;;;;7.03;5.07;;;13.30;80.00;;;;;;4974781;28;20489;-40
2024/03/13 08:26:44;;;;;;;6.15;4.80;;;13.30;79.90;;;;;;4972671;28;20023;-39
2024/03/13 08:29:15;;;;;;;6.75;4.97;;;13.30;79.90;;;;;;4976310;28;20039;-39
2024/03/13 08:31:47;;;;;;;6.32;4.65;;;13.30;79.90;;;;;;4961741;28;20157;-40
2024/03/13 08:34:14;;;;;;;7.03;5.25;;;13.40;80.00;;;;;;4975398;28;20097;-41
2024/03/13 08:36:40;;;;;;;7.45;4.55;;;13.40;80.00;;;;;;4977565;28;20019;-40
2024/03/13 08:39:06;;;;;;;7.38;5.35;;;13.40;79.90;;;;;;4977436;28;20620;-40
2024/03/13 08:41:32;;;;;;;7.03;5.63;;;13.40;79.90;;;;;;4975541;28;20019;-41
2024/03/13 08:43:57;;;;;;;7.07;5.03;;;13.40;80.00;;;;;;4983066;28;20053;-42
2024/03/13 08:46:23;;;;;;;7.30;5.45;;;13.40;79.90;;;;;;4977836;28;20137;-39
2024/03/13 08:48:55;;;;;;;6.95;4.93;;;13.40;79.80;;;;;;4971835;28;20038;-40
2024/03/13 08:51:20;;;;;;;7.75;5.75;;;13.40;79.80;;;;;;4967014;28;20038;-40
2024/03/13 08:53:47;;;;;;;7.55;5.32;;;13.40;79.80;;;;;;4976489;28;20031;-40
2024/03/13 08:56:13;;;;;;;6.40;4.85;;;13.40;79.80;;;;;;4966474;28;20087;-39
2024/03/13 08:58:42;;;;;;;6.53;4.82;;;13.50;79.90;;;;;;4969827;28;20047;-40
2024/03/13 09:01:08;;;;;;;6.32;4.93;;;13.50;79.90;;;;;;4970066;28;20027;-40
2024/03/13 09:03:36;;;;;;;6.97;5.07;;;13.50;79.90;;;;;;4959538;28;20099;-40
2024/03/13 09:06:04;;;;;;;7.85;5.40;;;13.50;79.80;;;;;;4978076;28;20027;-40
2024/03/13 09:08:30;;;;;;;7.15;5.60;;;13.50;79.80;;;;;;4978410;28;20030;-40
2024/03/13 09:10:57;;;;;;;7.35;5.65;;;13.60;79.90;;;;;;4970278;28;20023;-40
2024/03/13 09:13:24;;;;;;;7.13;5.20;;;13.50;79.80;;;;;;4974891;28;20030;-41
2024/03/13 09:15:50;;;;;;;7.28;5.07;;;13.60;79.90;;;;;;4975678;28;20037;-41
2024/03/13 09:18:15;;;;;;;6.82;5.18;;;13.60;79.80;;;;;;4973364;28;20058;-40
2024/03/13 09:20:41;;;;;;;7.50;5.30;;;13.60;79.80;;;;;;4979807;28;20015;-38
2024/03/13 09:23:10;;;;;;;7.30;5.32;;;13.60;79.80;;;;;;4975035;28;20534;-41
2024/03/13 09:25:36;;;;;;;7.68;5.03;;;13.60;79.80;;;;;;4977462;28;20462;-41
2024/03/13 09:28:01;;;;;;;6.93;4.75;;;13.60;79.80;;;;;;4981967;28;20029;-39
2024/03/13 09:30:28;;;;;;;7.18;5.10;;;13.60;79.80;;;;;;4947707;28;20066;-40
2024/03/13 09:32:54;;;;;;;6.95;5.15;;;13.60;79.80;;;;;;4962795;28;20031;-41
2024/03/13 09:35:19;;;;;;;6.70;4.75;;;13.70;79.80;;;;;;4975797;28;20027;-40
2024/03/13 09:37:46;;;;;;;8.45;4.90;;;13.70;79.80;;;;;;4954248;28;20118;-41
2024/03/13 09:40:16;;;;;;;8.35;4.90;;;13.70;79.80;;;;;;4981807;28;20114;-40
2024/03/13 09:42:45;;;;;;;7.45;4.85;;;13.70;79.80;;;;;;4982055;28;20026;-41
2024/03/13 09:45:17;;;;;;;6.57;4.63;;;13.70;79.80;;;;;;4981885;28;20019;-40
2024/03/13 09:47:44;;;;;;;6.43;4.50;;;13.70;79.80;;;;;;4975727;28;20491;-40
2024/03/13 09:50:15;;;;;;;6.18;4.82;;;13.80;79.80;;;;;;4981975;28;20073;-39
2024/03/13 09:52:42;;;;;;;5.68;4.22;;;13.80;79.80;;;;;;4973808;28;20086;-41
2024/03/13 09:55:13;;;;;;;6.32;4.60;;;13.80;79.80;;;;;;4979224;28;20106;-41
2024/03/13 09:57:39;;;;;;;6.32;4.57;;;13.80;79.80;;;;;;4982410;28;20031;-38
2024/03/13 10:00:14;;;;;;;6.35;4.60;;;13.80;79.70;;;;;;4979859;28;20102;-40
2024/03/13 10:02:42;;;;;;;6.07;4.53;;;13.90;79.80;;;;;;4980197;28;20054;-39
2024/03/13 10:05:12;;;;;;;6.28;4.35;;;13.90;79.80;;;;;;4977253;28;20046;-40
2024/03/13 10:07:38;;;;;;;5.15;3.85;;;13.90;79.80;;;;;;4984343;28;20038;-40
2024/03/13 10:10:26;;;;;;;5.82;4.40;;;13.90;79.80;;;;;;4980851;28;20042;-41
2024/03/13 10:12:55;;;;;;;5.70;3.85;;;13.90;79.70;;;;;;4980627;28;20034;-40
2024/03/13 10:15:21;;;;;;;5.75;4.03;;;13.90;79.70;;;;;;4983183;28;20026;-39
2024/03/13 10:18:00;;;;;;;5.47;4.05;;;14.00;79.70;;;;;;4974091;28;20045;-41
2024/03/13 10:20:30;;;;;;;5.78;4.20;;;14.00;79.70;;;;;;4973901;28;20569;-40
2024/03/13 10:22:59;;;;;;;7.38;4.30;;;14.00;79.70;;;;;;4977313;28;20467;-39
2024/03/13 10:25:29;;;;;;;6.80;4.38;;;14.00;79.70;;;;;;4981196;28;20022;-40
2024/03/13 10:27:56;;;;;;;6.93;4.90;;;14.10;80.40;;;;;;4973294;28;20054;-39
2024/03/13 10:30:22;;;;;;;7.10;4.53;;;14.00;79.60;;;;;;4978344;28;20038;-41
2024/03/13 10:32:49;;;;;;;7.03;4.60;;;14.10;79.70;;;;;;4982224;28;20081;-40
2024/03/13 10:35:16;;;;;;;8.10;5.00;;;14.10;79.70;;;;;;4982240;28;20062;-41
2024/03/13 10:37:43;;;;;;;8.07;5.60;;;14.10;79.70;;;;;;4964798;28;20031;-40
2024/03/13 10:40:09;;;;;;;9.48;5.90;;;14.10;79.60;;;;;;4972686;28;20023;-40
2024/03/13 10:42:37;;;;;;;8.02;5.40;;;14.10;79.60;;;;;;4971189;28;20015;-40
2024/03/13 10:45:04;;;;;;;9.25;5.88;;;14.10;79.70;;;;;;4976690;28;20047;-39
2024/03/13 10:47:30;;;;;;;8.93;6.53;;;14.10;79.60;;;;;;4975930;28;20035;-41
2024/03/13 10:49:56;;;;;;;9.00;6.47;;;14.20;79.70;;;;;;4963694;28;20058;-42
2024/03/13 10:52:22;;;;;;;9.15;6.10;;;14.20;79.60;;;;;;4976403;28;20026;-41
2024/03/13 10:54:48;;;;;;;12.07;6.63;;;14.20;79.60;;;;;;4980720;28;20097;-41
2024/03/13 10:57:19;;;;;;;10.20;6.68;;;14.20;79.60;;;;;;4972471;28;20034;-39
2024/03/13 10:59:48;;;;;;;10.07;6.43;;;14.20;79.70;;;;;;4967042;28;20106;-41
2024/03/13 11:02:18;;;;;;;10.35;6.50;;;14.30;79.70;;;;;;4964049;28;20037;-40
2024/03/13 11:04:45;;;;;;;9.00;6.53;;;14.30;79.70;;;;;;4979072;28;20037;-37
2024/03/13 11:07:12;;;;;;;10.48;7.07;;;14.30;79.60;;;;;;4979666;28;20035;-39
2024/03/13 11:09:39;;;;;;;9.93;6.38;;;14.30;79.60;;;;;;4971576;28;20038;-42
2024/03/13 11:12:23;;;;;;;11.48;7.35;;;14.30;79.60;;;;;;4969890;28;20065;-40
2024/03/13 11:14:55;;;;;;;9.63;6.55;;;14.40;79.70;;;;;;4971546;28;20033;-41
2024/03/13 11:17:23;;;;;;;9.57;6.55;;;14.40;79.60;;;;;;4975753;28;20109;-40
2024/03/13 11:20:05;;;;;;;9.95;7.22;;;14.40;79.70;;;;;;4974412;28;20030;-40
2024/03/13 11:22:33;;;;;;;10.43;6.85;;;14.40;79.70;;;;;;4975284;28;20037;-37
2024/03/13 11:25:01;;;;;;;10.10;7.00;;;14.40;79.60;;;;;;4980989;28;20034;-35
2024/03/13 11:27:27;;;;;;;10.68;6.57;;;14.40;79.60;;;;;;4979090;28;20066;-38
2024/03/13 11:29:55;;;;;;;8.40;6.47;;;14.40;79.60;;;;;;4977678;28;20034;-39
2024/03/13 11:32:23;;;;;;;10.88;7.22;;;14.50;79.60;;;;;;4970933;28;20047;-35
2024/03/13 11:34:50;;;;;;;10.40;6.95;;;14.50;79.60;;;;;;4971499;28;20025;-36
2024/03/13 11:37:17;;;;;;;9.85;6.93;;;14.50;79.60;;;;;;4957251;28;20442;-37
2024/03/13 11:39:44;;;;;;;11.00;7.78;;;14.50;79.60;;;;;;4957551;28;20027;-38
2024/03/13 11:42:14;;;;;;;10.88;7.93;;;14.50;79.60;;;;;;4972525;28;20034;-35
2024/03/13 11:44:49;;;;;;;11.63;7.82;;;14.50;79.50;;;;;;4980907;28;20027;-36
2024/03/13 11:47:21;;;;;;;10.85;7.93;;;14.50;79.60;;;;;;4978613;28;20217;-34
2024/03/13 11:49:56;;;;;;;10.07;7.38;;;14.60;79.50;;;;;;4962020;28;20042;-37
2024/03/13 11:52:22;;;;;;;10.75;7.25;;;14.60;79.50;;;;;;4971374;28;20035;-37
2024/03/13 11:54:48;;;;;;;11.52;7.70;;;14.60;79.50;;;;;;4979451;28;20027;-36
2024/03/13 11:57:14;;;;;;;10.85;8.10;;;14.60;79.50;;;;;;4976929;28;20023;-37
2024/03/13 11:59:42;;;;;;;11.02;7.97;;;14.60;79.60;;;;;;4972637;28;20038;-36
2024/03/13 12:02:31;;;;;;;10.48;8.00;;;14.60;79.60;;;;;;4979415;28;20023;-38
2024/03/13 12:05:04;;;;;;;10.63;7.68;;;14.70;79.60;;;;;;4975585;28;20084;-35
2024/03/13 12:07:36;;;;;;;11.75;8.45;;;14.70;79.50;;;;;;4970838;28;20035;-33
2024/03/13 12:10:02;;;;;;;10.30;7.97;;;14.70;79.50;;;;;;4964061;28;20038;-37
2024/03/13 12:12:28;;;;;;;11.98;8.20;;;14.60;79.50;;;;;;4972470;28;20031;-38
2024/03/13 12:14:55;;;;;;;10.60;8.00;;;14.70;79.50;;;;;;4971976;28;20038;-36
2024/03/13 12:17:21;;;;;;;11.10;8.75;;;14.70;79.50;;;;;;4961247;28;20070;-36
2024/03/13 12:19:47;;;;;;;11.43;8.80;;;14.70;79.50;;;;;;4972363;28;20031;-39
2024/03/13 12:22:13;;;;;;;11.95;8.52;;;14.70;79.50;;;;;;4969043;28;20027;-36
2024/03/13 12:24:40;;;;;;;12.02;8.60;;;14.70;79.50;;;;;;4985939;28;20030;-39
2024/03/13 12:27:07;;;;;;;10.52;8.45;;;14.80;79.50;;;;;;4970645;28;20071;-37
2024/03/13 12:29:38;;;;;;;11.48;8.75;;;14.80;79.60;;;;;;4972437;28;20039;-38
2024/03/13 12:32:08;;;;;;;10.35;8.25;;;14.80;79.50;;;;;;4955625;28;20022;-34
2024/03/13 12:34:35;;;;;;;12.45;8.98;;;14.80;79.50;;;;;;4984667;28;20026;-36
2024/03/13 12:37:01;;;;;;;11.80;9.23;;;14.80;79.50;;;;;;4975151;28;20081;-37
2024/03/13 12:39:26;;;;;;;12.90;9.75;;;14.80;79.50;;;;;;4978543;28;20113;-37
2024/03/13 12:41:53;;;;;;;11.38;8.93;;;14.80;79.50;;;;;;4970397;28;20038;-37
2024/03/13 12:44:19;;;;;;;14.13;9.75;;;14.80;79.40;;;;;;4963806;28;20039;-35
2024/03/13 12:46:45;;;;;;;13.35;9.77;;;14.80;79.40;;;;;;4982702;28;20043;-37
2024/03/13 12:49:15;;;;;;;11.70;9.02;;;14.90;79.50;;;;;;4973760;28;20066;-37
2024/03/13 12:51:41;;;;;;;11.63;9.05;;;14.90;79.50;;;;;;4967795;28;20111;-38
2024/03/13 12:54:10;;;;;;;10.82;8.93;;;14.90;79.50;;;;;;4987450;28;20589;-36
2024/03/13 12:56:35;;;;;;;11.77;9.85;;;14.90;79.50;;;;;;4978312;28;20023;-42
2024/03/13 12:59:01;;;;;;;12.43;9.18;;;14.90;79.40;;;;;;4987074;28;20031;-36
2024/03/13 13:01:28;;;;;;;11.18;9.45;;;14.90;79.40;;;;;;4973249;28;20078;-45
2024/03/13 13:03:54;;;;;;;10.98;9.40;;;14.90;79.50;;;;;;4982292;28;20047;-33